• Join FlightAware (Why Join?)
  • Login
  • US Flag 
02:27AM EDT


 

Airport Tracker/Info


-or-


 

Live Flight TrackerFlight Track Log ✈ ASQ4093 ✈ 07-May-2013 ✈ KCVG - KIAH

Flight Track Log - Related Links

Times and Time Zones

All times are in EDT time to prevent confusion due to time zone crossing. See the ASQ4093 flight status page for this flight to view local times or setup timezone preferences in your user account.

Time Position Orientation Groundspeed Altitude Reporting Facility
EDT Latitude Longitude Course Direction KTS MPH feet Rate Location/Type
07:11PM 39.0667 -84.6667 208° Southwest 170 196 2,000  Level Cincinnati TRACON
07:13PM 39.0667 -84.7500 270° West 217 250 4,500 2,280 Climbing Cincinnati TRACON
07:14PM 39.0500 -84.8333 256° West 244 281 6,800 2,160 Climbing Cincinnati TRACON
07:15PM 38.6410 -84.8616 208° Southwest  Level FlightAware Approximate
07:15PM 38.9833 -84.8500 191° South 275 316 8,900  Level Cincinnati TRACON
07:16PM 38.5453 -84.9254 208° Southwest  Level FlightAware Approximate
07:16PM 38.9053 -84.8769 195° South 287 330 10,900  Level Indianapolis Center
07:17PM 38.4463 -84.9802 208° Southwest  Level FlightAware Approximate
07:17PM 38.7997 -84.9006 190° South 316 364 13,400  Level Indianapolis Center
07:18PM 38.7083 -84.9222 190° South 331 381 14,100 780 Climbing Indianapolis Center
07:19PM 38.6028 -84.9472 190° South 366 421 15,100 1,200 Climbing Indianapolis Center
07:20PM 38.4939 -84.9761 192° South 391 450 16,600 1,380 Climbing Indianapolis Center
07:21PM 38.3897 -85.0242 200° South 397 457 18,000 1,380 Climbing Indianapolis Center
07:22PM 38.3056 -85.1131 220° Southwest 395 455 19,500 1,500 Climbing Indianapolis Center
07:23PM 38.2464 -85.2478 241° Southwest 408 470 21,100 1,500 Climbing Indianapolis Center
07:24PM 38.1922 -85.3733 241° Southwest 405 466 22,600 1,380 Climbing Indianapolis Center
07:25PM 38.1361 -85.5017 241° Southwest 411 473 24,000 1,620 Climbing Indianapolis Center
07:26PM 38.0844 -85.6600 248° West 406 467 26,000 1,740 Climbing Indianapolis Center
07:27PM 38.0519 -85.7908 253° West 391 450 27,600 1,200 Climbing Indianapolis Center
07:28PM 38.0181 -85.9244 252° West 394 453 28,600 960 Climbing Indianapolis Center
07:29PM 37.9822 -86.0606 252° West 404 465 29,700 1,200 Climbing Indianapolis Center
07:30PM 37.9472 -86.1975 252° West 407 468 31,200 1,500 Climbing Indianapolis Center
07:31PM 37.9111 -86.3342 252° West 405 466 32,800 1,320 Climbing Indianapolis Center
07:32PM 37.8761 -86.4686 252° West 400 460 34,000 540 Climbing Indianapolis Center
07:33PM 37.8397 -86.6072 252° West 410 472 34,000  Level Indianapolis Center
07:34PM 37.8000 -86.7561 251° West 436 502 34,000  Level Indianapolis Center
07:35PM 37.7608 -86.9050 252° West 442 509 34,000  Level Indianapolis Center
07:36PM 37.6769 -87.0569 235° Southwest 436 502 34,000  Level Indianapolis Center
07:37PM 37.6108 -87.1347 223° Southwest 435 501 34,000  Level Memphis Center
07:38PM 37.5217 -87.2297 220° Southwest 447 514 34,000  Level Memphis Center
07:39PM 37.4344 -87.3325 223° Southwest 441 507 34,000  Level Memphis Center
07:40PM 37.3394 -87.4508 225° Southwest 436 502 34,000  Level Memphis Center
07:41PM 37.2522 -87.5556 224° Southwest 442 509 34,000  Level Memphis Center
07:42PM 37.1672 -87.6628 225° Southwest 442 509 34,000  Level Memphis Center
07:43PM 37.0778 -87.7697 224° Southwest 442 509 34,000  Level Memphis Center
07:44PM 36.9903 -87.8767 224° Southwest 442 509 34,000  Level Memphis Center
07:45PM 36.9008 -87.9831 224° Southwest 447 514 34,000  Level Memphis Center
07:46PM 36.8153 -88.0892 225° Southwest 447 514 34,000  Level Memphis Center
07:47PM 36.7378 -88.1847 225° Southwest 447 514 34,000  Level Memphis Center
07:48PM 36.6500 -88.2906 224° Southwest 447 514 34,000  Level Memphis Center
07:49PM 36.5600 -88.3936 223° Southwest 447 514 34,000  Level Memphis Center
07:50PM 36.4719 -88.4964 223° Southwest 447 514 34,000  Level Memphis Center
07:51PM 36.3858 -88.5989 224° Southwest 442 509 34,000  Level Memphis Center
07:52PM 36.2997 -88.7011 224° Southwest 442 509 34,000  Level Memphis Center
07:53PM 36.2031 -88.8136 223° Southwest 437 503 34,000  Level Memphis Center
07:54PM 36.1147 -88.9131 222° Southwest 437 503 34,000  Level Memphis Center
07:55PM 36.0303 -89.0147 224° Southwest 437 503 34,000  Level Memphis Center
07:56PM 35.9439 -89.1136 223° Southwest 437 503 34,000  Level Memphis Center
07:57PM 35.8550 -89.2147 223° Southwest 437 503 34,000  Level Memphis Center
07:58PM 35.7683 -89.3183 224° Southwest 437 503 34,000  Level Memphis Center
07:59PM 35.6983 -89.4008 224° Southwest 437 503 34,000  Level Memphis Center
08:00PM 35.5969 -89.5247 225° Southwest 437 503 34,000  Level Memphis Center
08:01PM 35.5078 -89.6225 222° Southwest 437 503 34,000  Level Memphis Center
08:02PM 35.4208 -89.7253 224° Southwest 437 503 34,000  Level Memphis Center
08:03PM 35.3336 -89.8250 223° Southwest 437 503 34,000  Level Memphis Center
08:04PM 35.2486 -89.9247 224° Southwest 432 497 34,000  Level Memphis Center
08:05PM 35.1592 -90.0244 222° Southwest 432 497 34,000  Level Memphis Center
08:06PM 35.0717 -90.1236 223° Southwest 432 497 34,000  Level Memphis Center
08:07PM 34.9844 -90.2228 223° Southwest 432 497 34,000  Level Memphis Center
08:08PM 34.8967 -90.3217 223° Southwest 432 497 34,000  Level Memphis Center
08:09PM 34.8092 -90.4178 222° Southwest 432 497 34,000  Level Memphis Center
08:10PM 34.7214 -90.5139 222° Southwest 426 490 34,000  Level Memphis Center
08:11PM 34.6336 -90.6119 223° Southwest 426 490 34,000  Level Memphis Center
08:12PM 34.5519 -90.7153 226° Southwest 421 484 34,000  Level Memphis Center
08:13PM 34.4911 -90.8183 234° Southwest 421 484 34,000  Level Memphis Center
08:14PM 34.4197 -90.9336 233° Southwest 431 496 34,000  Level Memphis Center
08:15PM 34.3525 -91.0489 235° Southwest 431 496 34,000  Level Memphis Center
08:16PM 34.2828 -91.1617 233° Southwest 431 496 34,000  Level Memphis Center
08:17PM 34.2131 -91.2789 234° Southwest 431 496 34,000  Level Memphis Center
08:18PM 34.1414 -91.3936 233° Southwest 431 496 34,000  Level Memphis Center
08:19PM 34.0714 -91.5106 234° Southwest 431 496 34,000  Level Memphis Center
08:20PM 33.9950 -91.6375 234° Southwest 431 496 34,000  Level Memphis Center
08:21PM 33.9292 -91.7542 236° Southwest 431 496 34,000  Level Memphis Center
08:22PM 33.8569 -91.8631 231° Southwest 426 490 34,000  Level Memphis Center
08:25PM 33.7083 -92.1028 233° Southwest 411 473 34,000  Level Fort Worth Center
08:26PM 33.6219 -92.1803 217° Southwest 405 466 34,000  Level Fort Worth Center
08:27PM 33.5025 -92.2175 195° South 404 465 34,000  Level Fort Worth Center
08:28PM 33.3869 -92.2517 194° South 421 484 34,000  Level Fort Worth Center
08:29PM 33.2633 -92.2911 195° South 435 501 34,000  Level Fort Worth Center
08:30PM 33.1294 -92.3311 194° South 452 520 34,000  Level Fort Worth Center
08:31PM 33.0078 -92.3678 194° South 452 520 34,000  Level Fort Worth Center
08:32PM 32.8858 -92.4017 193° South 452 520 34,000  Level Fort Worth Center
08:33PM 32.7644 -92.4406 195° South 452 520 34,000  Level Fort Worth Center
08:34PM 32.6489 -92.4742 194° South 447 514 34,000  Level Fort Worth Center
08:36PM 32.3756 -92.5572 194° South 450 518 34,000  Level Houston Center
08:37PM 32.2525 -92.5939 194° South 456 525 34,000  Level Houston Center
08:38PM 32.1297 -92.6297 194° South 457 526 34,000  Level Houston Center
08:39PM 32.0067 -92.6658 194° South 458 527 34,000  Level Houston Center
08:40PM 31.8886 -92.7606 214° Southwest 432 497 34,000  Level Houston Center
08:41PM 31.7969 -92.8467 219° Southwest 424 488 34,000  Level Houston Center
08:42PM 31.7053 -92.9347 219° Southwest 427 491 34,000  Level Houston Center
08:43PM 31.6147 -93.0239 220° Southwest 426 490 34,000  Level Houston Center
08:44PM 31.5239 -93.1103 219° Southwest 424 488 34,000  Level Houston Center
08:45PM 31.4328 -93.1975 219° Southwest 424 488 34,000  Level Houston Center
08:46PM 31.3408 -93.2861 219° Southwest 425 489 34,000 -1,080 Level Houston Center
08:47PM 31.2325 -93.3900 219° Southwest 424 488 31,900 -2,040 Descending Houston Center
08:48PM 31.1408 -93.4758 219° Southwest 423 487 29,900 -1,920 Descending Houston Center
08:49PM 31.0464 -93.5664 219° Southwest 434 499 28,000 -1,920 Descending Houston Center
08:50PM 30.9508 -93.6567 219° Southwest 441 507 26,000 -1,860 Descending Houston Center
08:51PM 30.8556 -93.7478 219° Southwest 445 512 24,300 -1,500 Descending Houston Center
08:52PM 30.7619 -93.8356 219° Southwest 439 505 23,000 -1,500 Descending Houston Center
08:53PM 30.6519 -93.9394 219° Southwest 429 494 21,300 -1,500 Descending Houston Center
08:54PM 30.5606 -94.0267 219° Southwest 428 493 20,000 -1,440 Descending Houston Center
08:55PM 30.5172 -94.0653 218° Southwest 424 488 19,200 -1,980 Descending Houston Center
08:55PM 30.4711 -94.1094 220° Southwest 420 483 18,000 -2,400 Descending Houston Center
08:56PM 30.3981 -94.1758 218° Southwest 397 457 16,100 -2,340 Descending Houston Center
08:56PM 30.3850 -94.1900 223° Southwest 405 466 15,600 -2,340 Descending Houston Center
08:57PM 30.3156 -94.2547 219° Southwest 395 455 13,700 -2,400 Descending Houston Center
08:57PM 30.2997 -94.2692 218° Southwest 398 458 13,200 -1,740 Descending Houston Center
08:58PM 30.2289 -94.3339 218° Southwest 358 412 12,000 -1,200 Descending Houston Center
08:58PM 30.2194 -94.3442 223° Southwest 371 427 12,000 -900 Level Houston Center
08:59PM 30.1683 -94.4217 233° Southwest 327 376 11,100 -1,020 Descending Houston Center
09:00PM 30.1664 -94.4292 253° West 332 382 11,000 -1,620 Descending Houston Center
09:00PM 30.1283 -94.5067 240° Southwest 285 328 9,500 -1,800 Descending Houston Center
09:01PM 30.1203 -94.5231 240° Southwest 299 344 9,200 -1,980 Descending Houston Center
09:01PM 30.0897 -94.5864 241° Southwest 277 319 7,500 -1,860 Descending Houston Center
09:02PM 30.0831 -94.5992 239° Southwest 277 319 7,300 -1,800 Descending Houston Center
09:02PM 30.0567 -94.6561 242° Southwest 268 308 5,900 -1,800 Descending Houston Center
09:03PM 30.0483 -94.6742 242° Southwest 268 308 5,500 -1,680 Descending Houston Center
09:03PM 30.0217 -94.7281 240° Southwest 261 300 4,200 -1,560 Descending Houston Center
09:04PM 30.0125 -94.7475 241° Southwest 263 303 3,900 -1,200 Descending Houston Center
09:04PM 29.9864 -94.8000 240° Southwest 260 299 3,000 -840 Descending Houston Center
09:05PM 29.9781 -94.8211 246° West 262 302 3,100  Climbing Houston Center
09:05PM 29.9772 -94.8808 269° West 254 292 3,000  Descending Houston Center
09:06PM 29.9772 -94.9186 270° West 256 295 3,100 -240 Climbing Houston Center
09:06PM 29.9775 -94.9703 270° West 257 296 2,800 -540 Descending Houston Center
09:07PM 29.9781 -94.9997 271° West 255 293 2,600 -840 Descending Houston Center
09:07PM 29.9764 -95.0500 268° West 247 284 2,000 -540 Descending Houston Center
09:08PM 29.9778 -95.0761 274° West 248 285 2,100  Climbing Houston Center
09:08PM 29.9781 -95.1100 271° West 175 201 2,000  Descending Houston Center
09:09PM 29.9778 -95.1311 269° West 201 231 2,100  Climbing Houston Center
09:09PM 29.9767 -95.1656 268° West 161 185 2,000 -240 Descending Houston Center